East Lancaster, Pennsylvania
Current Conditions -  °F | °C
As of 9:53 PM on Tuesday 21 Oct 2014 (Local Time) from KLNS Reporting Station
Overcast Overcast  
Wind Chill: 55°   Ceiling: 4800
Heat Index: 55°   Visibility: 10mi
Dew Point: 49°   Wind: 7mph
Humidity: 80%   Direction: 280°W
Pressure: 29.9"   Gusts: NA
Location:  40.0388°N, 76.3074°W
Report Text: KLNS 220153Z 28006KT 10SM FEW041 BKN048 OVC100 13/09 A2990 RMK AO2 SLP126 T01280094
Loading
Personal Weather Stations






























Interactive Weather Map
Tropical Storm Tracking
New forecast layout! Learn more

10-Day Weather Forecast

Advertisements
Track Severe Weather on mobile